メインページ
METAR-TAF:

METAR-TAF

空港 :

ヤクーツク, ロシア

ヤクーツク空港

緯度: 62-01N, 経度: 129-43E, 海抜: 103m

現時点の気象観測

当レポートは30分前の03:30(UTC)に作成
東/南東の風 8kt
気温 9°C
湿度 43%
気圧 1009 hPa
視程10km以上
1,500メートル以下は雲なし、積乱雲なし

METAR: UEEE 230330Z 11004MPS CAVOK 09/M03 Q1009 R23L/09//60 NOSIG RMK QFE748

時間: 13:00 (04:00 UTC)

予報

当レポートは2時間0分前の02:00(UTC)に作成
予報は23日の 03時(UTC)から 24日の 09時(UTC)まで有効
東/南東の風 10kt、最大19ktの突風を伴う
視程10km以上
1,500メートル以下は雲なし、積乱雲なし
23日の 0900時(UTC)から
北東の風 12kt、最大23ktの突風を伴う
視程10km以上
高度3000ftの千切れ雲あり, 積乱雲.
高度7000ftの曇り
23日の 12時(UTC)から 23日の 24時(UTC)まで一時的に
高度600ftの雲は散在している
高度1500ftの千切れ雲あり, 積乱雲.
高度7000ftの曇り
弱いにわか雨

TAF: UEEE 230200Z 2303/2409 12005G10MPS CAVOK FM230900 04006G12MPS 9999 BKN030CB OVC070 TEMPO 2312/2324 -SHRA SCT006 BKN015CB OVC070

4,000以上の空港の気象観測と天気予報(METAR報とTAF報)

利用可能な観測所は地図上に黄色い丸と赤い丸で示す。

丸の上にカーソルを重ねると観測所名を参照できる。

次にクリックすると気象観測と天気予報を参照できる。

マップの切り替え:黒色「×」印の緑ボタンをクリックして拡大、「-」印の緑ボタンをクリックして縮小、緑色の三角印をクリックして隣りの地図に切り替え


METAR-TAF: